PWSweather.com
Personal Weather Stations
Station Observations
KTXPLANO70
Kemper Estates, Plano, TX

Kemper EstatesPlano, TX

Lat: 33.0674, Lon: -96.7659

Elevation: 737

Station Type: Davis Vantage Pro2

http://www.dallasdawg.com

Latest ConditionsUpdated 8:00:00 PM CDT Monday, Mar 25, 2019
Currently Today's Max Today's Min Today's Average
Temperature 65.4°F18.6°C 71.3°F21.8°C 52.8°F11.6°C 63.1°F17.3°C
Dew Point 48.8°F9.3°C 63.8°F17.7°C 48.0°F8.9°C 51.8°F11.0°C
Winds 2.3 mph NNW3.7 kmh NNW 9.2 mph -14.8 kmh - - 4.3 mph 6.9 kmh
Wind Gusts 3.5 mph5.6 kmh 17.3 mph27.8 kmh - -
Humidity 55% 94% 47% 68%
Pressure 30.18 in1022.0 mb 30.21 in1023.0 mb 29.98 in1015.2 mb -
Precipitation - 0.01 in0.3 mm - -
Hour Temp Dew Point Humidity Winds Wind Gusts Pressure Precip Precip Rate Daily Precip Total
08:00 PM 65.4°F18.6°C 48.8°F9.3°C 55% 2.3 mph NNW3.7 kmh NNW 3.5 mph5.6 kmh 30.18 in1022.0 mb - 0.00 in0.0 mm 0.01 in0.3 mm
07:55 PM 65.8°F18.8°C 49.1°F9.5°C 55% 2.3 mph NNW3.7 kmh NNW 3.5 mph5.6 kmh 30.18 in1022.0 mb - 0.00 in0.0 mm 0.01 in0.3 mm
07:50 PM 66.2°F19.0°C 49.0°F9.4°C 54% 3.5 mph NNW5.6 kmh NNW 4.6 mph7.4 kmh 30.18 in1022.0 mb - 0.00 in0.0 mm 0.01 in0.3 mm
07:45 PM 66.4°F19.1°C 49.3°F9.6°C 54% 3.5 mph NW5.6 kmh NW 4.6 mph7.4 kmh 30.18 in1022.0 mb - 0.00 in0.0 mm 0.01 in0.3 mm
07:40 PM 66.5°F19.2°C 48.9°F9.4°C 53% 2.3 mph NW3.7 kmh NW 5.8 mph9.3 kmh 30.18 in1022.0 mb - 0.00 in0.0 mm 0.01 in0.3 mm
07:35 PM 66.8°F19.3°C 49.6°F9.8°C 54% 3.5 mph N5.6 kmh N 5.8 mph9.3 kmh 30.18 in1022.0 mb - 0.00 in0.0 mm 0.01 in0.3 mm
07:30 PM 67.1°F19.5°C 49.4°F9.7°C 53% 4.6 mph NW7.4 kmh NW 4.6 mph7.4 kmh 30.18 in1022.0 mb - 0.00 in0.0 mm 0.01 in0.3 mm
07:25 PM 67.3°F19.6°C 49.6°F9.8°C 53% 3.5 mph WNW5.6 kmh WNW 4.6 mph7.4 kmh 30.18 in1022.0 mb - 0.00 in0.0 mm 0.01 in0.3 mm
07:20 PM 67.5°F19.7°C 49.7°F9.8°C 53% 3.5 mph NNW5.6 kmh NNW 6.9 mph11.1 kmh 30.18 in1022.0 mb - 0.00 in0.0 mm 0.01 in0.3 mm
07:15 PM 67.6°F19.8°C 49.9°F9.9°C 53% 3.5 mph NW5.6 kmh NW 8.1 mph13.0 kmh 30.18 in1022.0 mb - 0.00 in0.0 mm 0.01 in0.3 mm
07:10 PM 67.8°F19.9°C 49.5°F9.7°C 52% 3.5 mph NW5.6 kmh NW 5.8 mph9.3 kmh 30.18 in1022.0 mb - 0.00 in0.0 mm 0.01 in0.3 mm
07:00 PM 68.3°F20.2°C 48.9°F9.4°C 50% 4.6 mph NNW7.4 kmh NNW 11.5 mph18.5 kmh 30.18 in1022.0 mb - 0.00 in0.0 mm 0.01 in0.3 mm
06:55 PM 68.3°F20.2°C 49.5°F9.7°C 51% 4.6 mph N7.4 kmh N 8.1 mph13.0 kmh 30.18 in1022.0 mb - 0.00 in0.0 mm 0.01 in0.3 mm
06:50 PM 68.7°F20.4°C 49.3°F9.6°C 50% 5.8 mph NW9.3 kmh NW 6.9 mph11.1 kmh 30.17 in1021.7 mb - 0.00 in0.0 mm 0.01 in0.3 mm
06:45 PM 68.9°F20.5°C 49.5°F9.7°C 50% 2.3 mph WNW3.7 kmh WNW 6.9 mph11.1 kmh 30.17 in1021.7 mb - 0.00 in0.0 mm 0.01 in0.3 mm
06:40 PM 69.2°F20.7°C 49.8°F9.9°C 50% 5.8 mph N9.3 kmh N 11.5 mph18.5 kmh 30.17 in1021.7 mb - 0.00 in0.0 mm 0.01 in0.3 mm
06:35 PM 69.1°F20.6°C 49.1°F9.5°C 49% 4.6 mph N7.4 kmh N 9.2 mph14.8 kmh 30.17 in1021.7 mb - 0.00 in0.0 mm 0.01 in0.3 mm
06:30 PM 69.3°F20.7°C 49.8°F9.9°C 50% 2.3 mph NW3.7 kmh NW 5.8 mph9.3 kmh 30.17 in1021.7 mb - 0.00 in0.0 mm 0.01 in0.3 mm
06:25 PM 69.4°F20.8°C 49.4°F9.7°C 49% 5.8 mph NW9.3 kmh NW 11.5 mph18.5 kmh 30.17 in1021.7 mb - 0.00 in0.0 mm 0.01 in0.3 mm
06:20 PM 70.0°F21.1°C 49.9°F9.9°C 49% 4.6 mph NNW7.4 kmh NNW 5.8 mph9.3 kmh 30.17 in1021.7 mb - 0.00 in0.0 mm 0.01 in0.3 mm
06:15 PM 69.9°F21.1°C 49.9°F9.9°C 49% 5.8 mph NW9.3 kmh NW 10.4 mph16.7 kmh 30.17 in1021.7 mb - 0.00 in0.0 mm 0.01 in0.3 mm
06:10 PM 69.7°F20.9°C 50.2°F10.1°C 50% 2.3 mph NW3.7 kmh NW 3.5 mph5.6 kmh 30.16 in1021.3 mb - 0.00 in0.0 mm 0.01 in0.3 mm
06:00 PM 69.8°F21.0°C 49.8°F9.9°C 49% 4.6 mph NNW7.4 kmh NNW 5.8 mph9.3 kmh 30.16 in1021.3 mb - 0.00 in0.0 mm 0.01 in0.3 mm
05:55 PM 70.3°F21.3°C 50.2°F10.1°C 49% 4.6 mph N7.4 kmh N 8.1 mph13.0 kmh 30.17 in1021.7 mb - 0.00 in0.0 mm 0.01 in0.3 mm
05:50 PM 70.2°F21.2°C 50.1°F10.1°C 49% 3.5 mph W5.6 kmh W 5.8 mph9.3 kmh 30.16 in1021.3 mb - 0.00 in0.0 mm 0.01 in0.3 mm
05:45 PM 70.0°F21.1°C 50.0°F10.0°C 49% 4.6 mph NW7.4 kmh NW 6.9 mph11.1 kmh 30.16 in1021.3 mb - 0.00 in0.0 mm 0.01 in0.3 mm
05:40 PM 70.4°F21.3°C 50.3°F10.2°C 49% 9.2 mph NW14.8 kmh NW 15.0 mph24.1 kmh 30.16 in1021.3 mb - 0.00 in0.0 mm 0.01 in0.3 mm
05:35 PM 70.5°F21.4°C 49.8°F9.9°C 48% 2.3 mph NW3.7 kmh NW 4.6 mph7.4 kmh 30.16 in1021.3 mb - 0.00 in0.0 mm 0.01 in0.3 mm
05:30 PM 70.4°F21.3°C 49.8°F9.9°C 48% 4.6 mph NNW7.4 kmh NNW 10.4 mph16.7 kmh 30.16 in1021.3 mb - 0.00 in0.0 mm 0.01 in0.3 mm
05:25 PM 70.6°F21.4°C 49.4°F9.7°C 47% 9.2 mph NW14.8 kmh NW 11.5 mph18.5 kmh 30.16 in1021.3 mb - 0.00 in0.0 mm 0.01 in0.3 mm
05:20 PM 70.8°F21.6°C 49.6°F9.8°C 47% 4.6 mph N7.4 kmh N 11.5 mph18.5 kmh 30.16 in1021.3 mb - 0.00 in0.0 mm 0.01 in0.3 mm
05:15 PM 70.6°F21.4°C 51.1°F10.6°C 50% 4.6 mph WNW7.4 kmh WNW 4.6 mph7.4 kmh 30.16 in1021.3 mb - 0.00 in0.0 mm 0.01 in0.3 mm
05:10 PM 70.6°F21.4°C 49.9°F9.9°C 48% 4.6 mph W7.4 kmh W 4.6 mph7.4 kmh 30.16 in1021.3 mb - 0.00 in0.0 mm 0.01 in0.3 mm
05:00 PM 70.8°F21.6°C 51.2°F10.7°C 50% 5.8 mph NNW9.3 kmh NNW 10.4 mph16.7 kmh 30.16 in1021.3 mb - 0.00 in0.0 mm 0.01 in0.3 mm
04:55 PM 70.9°F21.6°C 50.2°F10.1°C 48% 5.8 mph NNW9.3 kmh NNW 6.9 mph11.1 kmh 30.16 in1021.3 mb - 0.00 in0.0 mm 0.01 in0.3 mm
04:50 PM 71.0°F21.7°C 50.4°F10.2°C 48% 5.8 mph NW9.3 kmh NW 11.5 mph18.5 kmh 30.16 in1021.3 mb - 0.00 in0.0 mm 0.01 in0.3 mm
04:45 PM 71.3°F21.8°C 51.1°F10.6°C 49% 5.8 mph NW9.3 kmh NW 8.1 mph13.0 kmh 30.16 in1021.3 mb - 0.00 in0.0 mm 0.01 in0.3 mm
04:40 PM 70.6°F21.4°C 51.0°F10.6°C 50% 3.5 mph WNW5.6 kmh WNW 4.6 mph7.4 kmh 30.17 in1021.7 mb - 0.00 in0.0 mm 0.01 in0.3 mm
04:35 PM 71.1°F21.7°C 50.4°F10.2°C 48% 8.1 mph NNW13.0 kmh NNW 15.0 mph24.1 kmh 30.17 in1021.7 mb - 0.00 in0.0 mm 0.01 in0.3 mm
04:30 PM 71.3°F21.8°C 52.2°F11.2°C 51% 4.6 mph NW7.4 kmh NW 9.2 mph14.8 kmh 30.17 in1021.7 mb - 0.00 in0.0 mm 0.01 in0.3 mm
04:25 PM 71.0°F21.7°C 50.9°F10.5°C 49% 4.6 mph N7.4 kmh N 6.9 mph11.1 kmh 30.17 in1021.7 mb - 0.00 in0.0 mm 0.01 in0.3 mm
04:20 PM 70.8°F21.6°C 50.7°F10.4°C 49% 2.3 mph WNW3.7 kmh WNW 2.3 mph3.7 kmh 30.17 in1021.7 mb - 0.00 in0.0 mm 0.01 in0.3 mm
04:15 PM 70.5°F21.4°C 51.0°F10.6°C 50% 6.9 mph NW11.1 kmh NW 11.5 mph18.5 kmh 30.17 in1021.7 mb - 0.00 in0.0 mm 0.01 in0.3 mm
04:10 PM 71.2°F21.8°C 51.6°F10.9°C 50% 5.8 mph N9.3 kmh N 9.2 mph14.8 kmh 30.17 in1021.7 mb - 0.00 in0.0 mm 0.01 in0.3 mm
04:00 PM 70.6°F21.4°C 52.2°F11.2°C 52% 3.5 mph NNW5.6 kmh NNW 5.8 mph9.3 kmh 30.17 in1021.7 mb - 0.00 in0.0 mm 0.01 in0.3 mm
03:55 PM 70.1°F21.2°C 51.6°F10.9°C 52% 5.8 mph NW9.3 kmh NW 8.1 mph13.0 kmh 30.18 in1022.0 mb - 0.00 in0.0 mm 0.01 in0.3 mm
03:50 PM 70.3°F21.3°C 50.2°F10.1°C 49% 9.2 mph NNW14.8 kmh NNW 11.5 mph18.5 kmh 30.17 in1021.7 mb - 0.00 in0.0 mm 0.01 in0.3 mm
03:45 PM 70.7°F21.5°C 52.2°F11.2°C 52% 4.6 mph NNW7.4 kmh NNW 11.5 mph18.5 kmh 30.17 in1021.7 mb - 0.00 in0.0 mm 0.01 in0.3 mm
03:40 PM 71.1°F21.7°C 52.1°F11.2°C 51% 6.9 mph NW11.1 kmh NW 12.7 mph20.4 kmh 30.18 in1022.0 mb - 0.00 in0.0 mm 0.01 in0.3 mm
03:35 PM 71.3°F21.8°C 51.2°F10.7°C 49% 6.9 mph NW11.1 kmh NW 10.4 mph16.7 kmh 30.18 in1022.0 mb - 0.00 in0.0 mm 0.01 in0.3 mm
03:30 PM 71.0°F21.7°C 52.5°F11.4°C 52% 4.6 mph NW7.4 kmh NW 9.2 mph14.8 kmh 30.18 in1022.0 mb - 0.00 in0.0 mm 0.01 in0.3 mm
03:25 PM 70.1°F21.2°C 51.1°F10.6°C 51% 4.6 mph WNW7.4 kmh WNW 11.5 mph18.5 kmh 30.18 in1022.0 mb - 0.00 in0.0 mm 0.01 in0.3 mm
03:20 PM 70.0°F21.1°C 52.0°F11.1°C 53% 4.6 mph WNW7.4 kmh WNW 4.6 mph7.4 kmh 30.18 in1022.0 mb - 0.00 in0.0 mm 0.01 in0.3 mm
03:15 PM 69.9°F21.1°C 51.0°F10.6°C 51% 6.9 mph NNW11.1 kmh NNW 11.5 mph18.5 kmh 30.18 in1022.0 mb - 0.00 in0.0 mm 0.01 in0.3 mm
03:10 PM 69.8°F21.0°C 51.4°F10.8°C 52% 4.6 mph NW7.4 kmh NW 3.5 mph5.6 kmh 30.18 in1022.0 mb - 0.00 in0.0 mm 0.01 in0.3 mm
03:00 PM 69.6°F20.9°C 51.2°F10.7°C 52% 6.9 mph NNE11.1 kmh NNE 15.0 mph24.1 kmh 30.19 in1022.4 mb - 0.00 in0.0 mm 0.01 in0.3 mm
02:55 PM 70.0°F21.1°C 51.6°F10.9°C 52% 6.9 mph NW11.1 kmh NW 11.5 mph18.5 kmh 30.19 in1022.4 mb - 0.00 in0.0 mm 0.01 in0.3 mm
02:50 PM 68.9°F20.5°C 51.0°F10.6°C 53% 4.6 mph NW7.4 kmh NW 11.5 mph18.5 kmh 30.19 in1022.4 mb - 0.00 in0.0 mm 0.01 in0.3 mm
02:45 PM 69.1°F20.6°C 50.2°F10.1°C 51% 6.9 mph NW11.1 kmh NW 11.5 mph18.5 kmh 30.19 in1022.4 mb - 0.00 in0.0 mm 0.01 in0.3 mm
02:40 PM 70.0°F21.1°C 50.0°F10.0°C 49% 6.9 mph NNW11.1 kmh NNW 9.2 mph14.8 kmh 30.20 in1022.7 mb - 0.00 in0.0 mm 0.01 in0.3 mm
02:35 PM 69.2°F20.7°C 50.3°F10.2°C 51% 4.6 mph NW7.4 kmh NW 11.5 mph18.5 kmh 30.20 in1022.7 mb - 0.00 in0.0 mm 0.01 in0.3 mm
02:30 PM 69.0°F20.6°C 51.2°F10.7°C 53% 4.6 mph NW7.4 kmh NW 11.5 mph18.5 kmh 30.20 in1022.7 mb - 0.00 in0.0 mm 0.01 in0.3 mm
02:25 PM 69.5°F20.8°C 51.6°F10.9°C 53% 6.9 mph N11.1 kmh N 12.7 mph20.4 kmh 30.20 in1022.7 mb - 0.00 in0.0 mm 0.01 in0.3 mm
02:20 PM 68.6°F20.3°C 50.8°F10.4°C 53% 4.6 mph N7.4 kmh N 5.8 mph9.3 kmh 30.20 in1022.7 mb - 0.00 in0.0 mm 0.01 in0.3 mm
02:15 PM 69.4°F20.8°C 52.1°F11.2°C 54% 4.6 mph NW7.4 kmh NW 13.8 mph22.2 kmh 30.20 in1022.7 mb - 0.00 in0.0 mm 0.01 in0.3 mm
02:10 PM 69.1°F20.6°C 51.8°F11.0°C 54% 5.8 mph WNW9.3 kmh WNW 12.7 mph20.4 kmh 30.20 in1022.7 mb - 0.00 in0.0 mm 0.01 in0.3 mm
02:00 PM 68.8°F20.4°C 52.0°F11.1°C 55% 4.6 mph NW7.4 kmh NW 3.5 mph5.6 kmh 30.20 in1022.7 mb - 0.00 in0.0 mm 0.01 in0.3 mm
01:55 PM 68.7°F20.4°C 51.4°F10.8°C 54% 6.9 mph NW11.1 kmh NW 11.5 mph18.5 kmh 30.20 in1022.7 mb - 0.00 in0.0 mm 0.01 in0.3 mm
01:50 PM 68.9°F20.5°C 51.6°F10.9°C 54% 3.5 mph NNE5.6 kmh NNE 9.2 mph14.8 kmh 30.20 in1022.7 mb - 0.00 in0.0 mm 0.01 in0.3 mm
01:45 PM 68.7°F20.4°C 51.9°F11.1°C 55% 6.9 mph NW11.1 kmh NW 9.2 mph14.8 kmh 30.20 in1022.7 mb - 0.00 in0.0 mm 0.01 in0.3 mm
01:40 PM 68.7°F20.4°C 52.4°F11.3°C 56% 5.8 mph NW9.3 kmh NW 11.5 mph18.5 kmh 30.20 in1022.7 mb - 0.00 in0.0 mm 0.01 in0.3 mm
01:35 PM 68.2°F20.1°C 52.4°F11.3°C 57% 6.9 mph NW11.1 kmh NW 13.8 mph22.2 kmh 30.21 in1023.0 mb - 0.00 in0.0 mm 0.01 in0.3 mm
01:30 PM 68.2°F20.1°C 52.4°F11.3°C 57% 4.6 mph NNW7.4 kmh NNW 8.1 mph13.0 kmh 30.21 in1023.0 mb - 0.00 in0.0 mm 0.01 in0.3 mm
01:25 PM 68.7°F20.4°C 52.9°F11.6°C 57% 5.8 mph W9.3 kmh W 11.5 mph18.5 kmh 30.21 in1023.0 mb - 0.00 in0.0 mm 0.01 in0.3 mm
01:20 PM 68.6°F20.3°C 52.3°F11.3°C 56% 4.6 mph NW7.4 kmh NW 8.1 mph13.0 kmh 30.21 in1023.0 mb - 0.00 in0.0 mm 0.01 in0.3 mm
01:15 PM 68.1°F20.1°C 52.3°F11.3°C 57% 4.6 mph WNW7.4 kmh WNW 9.2 mph14.8 kmh 30.21 in1023.0 mb - 0.00 in0.0 mm 0.01 in0.3 mm
01:10 PM 68.1°F20.1°C 53.7°F12.1°C 60% 4.6 mph NNW7.4 kmh NNW 11.5 mph18.5 kmh 30.21 in1023.0 mb - 0.00 in0.0 mm 0.01 in0.3 mm
01:00 PM 67.9°F19.9°C 51.6°F10.9°C 56% 8.1 mph WNW13.0 kmh WNW 12.7 mph20.4 kmh 30.21 in1023.0 mb - 0.00 in0.0 mm 0.01 in0.3 mm
12:55 PM 67.8°F19.9°C 52.9°F11.6°C 59% 3.5 mph WNW5.6 kmh WNW 8.1 mph13.0 kmh 30.21 in1023.0 mb - 0.00 in0.0 mm 0.01 in0.3 mm
12:50 PM 67.2°F19.6°C 51.9°F11.1°C 58% 5.8 mph NW9.3 kmh NW 8.1 mph13.0 kmh 30.21 in1023.0 mb - 0.00 in0.0 mm 0.01 in0.3 mm
12:45 PM 66.6°F19.2°C 50.9°F10.5°C 57% 4.6 mph WNW7.4 kmh WNW 6.9 mph11.1 kmh 30.21 in1023.0 mb - 0.00 in0.0 mm 0.01 in0.3 mm
12:40 PM 67.7°F19.8°C 51.5°F10.8°C 56% 4.6 mph N7.4 kmh N 5.8 mph9.3 kmh 30.21 in1023.0 mb - 0.00 in0.0 mm 0.01 in0.3 mm
12:35 PM 66.8°F19.3°C 52.5°F11.4°C 60% 3.5 mph NW5.6 kmh NW 6.9 mph11.1 kmh 30.21 in1023.0 mb - 0.00 in0.0 mm 0.01 in0.3 mm
12:30 PM 67.6°F19.8°C 51.8°F11.0°C 57% 6.9 mph NW11.1 kmh NW 11.5 mph18.5 kmh 30.21 in1023.0 mb - 0.00 in0.0 mm 0.01 in0.3 mm
12:25 PM 66.9°F19.4°C 52.6°F11.4°C 60% 3.5 mph W5.6 kmh W 9.2 mph14.8 kmh 30.21 in1023.0 mb - 0.00 in0.0 mm 0.01 in0.3 mm
12:20 PM 66.7°F19.3°C 52.8°F11.6°C 61% 5.8 mph NNE9.3 kmh NNE 6.9 mph11.1 kmh 30.21 in1023.0 mb - 0.00 in0.0 mm 0.01 in0.3 mm
12:15 PM 65.6°F18.7°C 50.9°F10.5°C 59% 3.5 mph NW5.6 kmh NW 6.9 mph11.1 kmh 30.21 in1023.0 mb - 0.00 in0.0 mm 0.01 in0.3 mm
12:10 PM 66.5°F19.2°C 51.7°F10.9°C 59% 6.9 mph NW11.1 kmh NW 17.3 mph27.8 kmh 30.21 in1023.0 mb - 0.00 in0.0 mm 0.01 in0.3 mm
12:00 PM 66.5°F19.2°C 51.2°F10.7°C 58% 4.6 mph NW7.4 kmh NW 13.8 mph22.2 kmh 30.21 in1023.0 mb - 0.00 in0.0 mm 0.01 in0.3 mm
11:55 AM 65.8°F18.8°C 51.6°F10.9°C 60% 6.9 mph NW11.1 kmh NW 11.5 mph18.5 kmh 30.21 in1023.0 mb - 0.00 in0.0 mm 0.01 in0.3 mm
11:50 AM 65.5°F18.6°C 51.2°F10.7°C 60% 3.5 mph N5.6 kmh N 3.5 mph5.6 kmh 30.21 in1023.0 mb - 0.00 in0.0 mm 0.01 in0.3 mm
11:45 AM 65.9°F18.8°C 51.6°F10.9°C 60% 4.6 mph NNW7.4 kmh NNW 9.2 mph14.8 kmh 30.21 in1023.0 mb - 0.00 in0.0 mm 0.01 in0.3 mm
11:40 AM 66.0°F18.9°C 50.8°F10.4°C 58% 9.2 mph NW14.8 kmh NW 11.5 mph18.5 kmh 30.21 in1023.0 mb - 0.00 in0.0 mm 0.01 in0.3 mm
11:35 AM 65.0°F18.3°C 51.7°F10.9°C 62% 4.6 mph NW7.4 kmh NW 5.8 mph9.3 kmh 30.21 in1023.0 mb - 0.00 in0.0 mm 0.01 in0.3 mm
11:30 AM 65.4°F18.6°C 50.7°F10.4°C 59% 3.5 mph N5.6 kmh N 6.9 mph11.1 kmh 30.21 in1023.0 mb - 0.00 in0.0 mm 0.01 in0.3 mm
11:25 AM 65.5°F18.6°C 50.8°F10.4°C 59% 5.8 mph NNW9.3 kmh NNW 10.4 mph16.7 kmh 30.21 in1023.0 mb - 0.00 in0.0 mm 0.01 in0.3 mm
11:20 AM 65.0°F18.3°C 51.6°F10.9°C 62% 5.8 mph NW9.3 kmh NW 8.1 mph13.0 kmh 30.21 in1023.0 mb - 0.00 in0.0 mm 0.01 in0.3 mm
11:15 AM 64.0°F17.8°C 50.3°F10.2°C 61% 5.8 mph N9.3 kmh N 8.1 mph13.0 kmh 30.21 in1023.0 mb - 0.00 in0.0 mm 0.01 in0.3 mm
11:10 AM 64.4°F18.0°C 51.1°F10.6°C 62% 5.8 mph NNW9.3 kmh NNW 10.4 mph16.7 kmh 30.20 in1022.7 mb - 0.00 in0.0 mm 0.01 in0.3 mm
11:00 AM 64.5°F18.1°C 51.2°F10.7°C 62% 3.5 mph NNW5.6 kmh NNW 6.9 mph11.1 kmh 30.20 in1022.7 mb - 0.00 in0.0 mm 0.01 in0.3 mm
10:55 AM 64.6°F18.1°C 50.8°F10.4°C 61% 6.9 mph NW11.1 kmh NW 10.4 mph16.7 kmh 30.20 in1022.7 mb - 0.00 in0.0 mm 0.01 in0.3 mm
10:50 AM 63.6°F17.6°C 50.4°F10.2°C 62% 5.8 mph N9.3 kmh N 9.2 mph14.8 kmh 30.20 in1022.7 mb - 0.00 in0.0 mm 0.01 in0.3 mm
10:45 AM 63.6°F17.6°C 50.3°F10.2°C 62% 6.9 mph N11.1 kmh N 11.5 mph18.5 kmh 30.20 in1022.7 mb - 0.00 in0.0 mm 0.01 in0.3 mm
10:40 AM 63.2°F17.3°C 50.0°F10.0°C 62% 6.9 mph N11.1 kmh N 11.5 mph18.5 kmh 30.19 in1022.4 mb - 0.00 in0.0 mm 0.01 in0.3 mm
10:35 AM 63.0°F17.2°C 50.2°F10.1°C 63% 6.9 mph N11.1 kmh N 11.5 mph18.5 kmh 30.19 in1022.4 mb - 0.00 in0.0 mm 0.01 in0.3 mm
10:30 AM 62.4°F16.9°C 49.2°F9.6°C 62% 6.9 mph NNW11.1 kmh NNW 11.5 mph18.5 kmh 30.19 in1022.4 mb - 0.00 in0.0 mm 0.01 in0.3 mm
10:25 AM 62.4°F16.9°C 50.5°F10.3°C 65% 4.6 mph NNW7.4 kmh NNW 8.1 mph13.0 kmh 30.19 in1022.4 mb - 0.00 in0.0 mm 0.01 in0.3 mm
10:20 AM 62.3°F16.8°C 50.4°F10.2°C 65% 5.8 mph N9.3 kmh N 6.9 mph11.1 kmh 30.18 in1022.0 mb - 0.00 in0.0 mm 0.01 in0.3 mm
10:15 AM 62.2°F16.8°C 51.1°F10.6°C 67% 2.3 mph NNW3.7 kmh NNW 4.6 mph7.4 kmh 30.18 in1022.0 mb - 0.00 in0.0 mm 0.01 in0.3 mm
10:10 AM 61.5°F16.4°C 50.8°F10.4°C 68% 3.5 mph NW5.6 kmh NW 5.8 mph9.3 kmh 30.18 in1022.0 mb - 0.00 in0.0 mm 0.01 in0.3 mm
10:00 AM 60.7°F15.9°C 49.6°F9.8°C 67% 4.6 mph NW7.4 kmh NW 3.5 mph5.6 kmh 30.17 in1021.7 mb - 0.00 in0.0 mm 0.01 in0.3 mm
09:55 AM 60.5°F15.8°C 50.3°F10.2°C 69% 5.8 mph NW9.3 kmh NW 8.1 mph13.0 kmh 30.17 in1021.7 mb - 0.00 in0.0 mm 0.01 in0.3 mm
09:50 AM 60.3°F15.7°C 49.7°F9.8°C 68% 5.8 mph NW9.3 kmh NW 8.1 mph13.0 kmh 30.17 in1021.7 mb - 0.00 in0.0 mm 0.01 in0.3 mm
09:45 AM 60.2°F15.7°C 50.8°F10.4°C 71% 4.6 mph NW7.4 kmh NW 9.2 mph14.8 kmh 30.17 in1021.7 mb - 0.00 in0.0 mm 0.01 in0.3 mm
09:40 AM 59.8°F15.4°C 50.4°F10.2°C 71% 5.8 mph N9.3 kmh N 10.4 mph16.7 kmh 30.17 in1021.7 mb - 0.00 in0.0 mm 0.01 in0.3 mm
09:35 AM 59.5°F15.3°C 49.7°F9.8°C 70% 5.8 mph NNW9.3 kmh NNW 9.2 mph14.8 kmh 30.16 in1021.3 mb - 0.00 in0.0 mm 0.01 in0.3 mm
09:30 AM 59.6°F15.3°C 50.2°F10.1°C 71% 5.8 mph N9.3 kmh N 10.4 mph16.7 kmh 30.16 in1021.3 mb - 0.00 in0.0 mm 0.01 in0.3 mm
09:25 AM 59.1°F15.1°C 50.1°F10.1°C 72% 4.6 mph N7.4 kmh N 9.2 mph14.8 kmh 30.16 in1021.3 mb - 0.00 in0.0 mm 0.01 in0.3 mm
09:20 AM 58.7°F14.8°C 49.7°F9.8°C 72% 5.8 mph NNW9.3 kmh NNW 9.2 mph14.8 kmh 30.16 in1021.3 mb - 0.00 in0.0 mm 0.01 in0.3 mm
09:15 AM 58.4°F14.7°C 49.4°F9.7°C 72% 3.5 mph NNW5.6 kmh NNW 10.4 mph16.7 kmh 30.15 in1021.0 mb - 0.00 in0.0 mm 0.01 in0.3 mm
09:10 AM 58.0°F14.4°C 49.0°F9.4°C 72% 5.8 mph NW9.3 kmh NW 6.9 mph11.1 kmh 30.15 in1021.0 mb - 0.00 in0.0 mm 0.01 in0.3 mm
09:00 AM 57.6°F14.2°C 49.4°F9.7°C 74% 3.5 mph N5.6 kmh N 9.2 mph14.8 kmh 30.14 in1020.7 mb - 0.00 in0.0 mm 0.01 in0.3 mm
08:55 AM 57.2°F14.0°C 49.4°F9.7°C 75% 3.5 mph N5.6 kmh N 8.1 mph13.0 kmh 30.14 in1020.7 mb - 0.00 in0.0 mm 0.01 in0.3 mm
08:50 AM 56.8°F13.8°C 48.9°F9.4°C 75% 3.5 mph NW5.6 kmh NW 3.5 mph5.6 kmh 30.14 in1020.7 mb - 0.00 in0.0 mm 0.01 in0.3 mm
08:45 AM 56.2°F13.4°C 48.7°F9.3°C 76% 4.6 mph NNW7.4 kmh NNW 6.9 mph11.1 kmh 30.14 in1020.7 mb - 0.00 in0.0 mm 0.01 in0.3 mm
08:40 AM 55.9°F13.3°C 48.8°F9.3°C 77% 4.6 mph N7.4 kmh N 6.9 mph11.1 kmh 30.13 in1020.3 mb - 0.00 in0.0 mm 0.01 in0.3 mm
08:35 AM 55.5°F13.1°C 48.7°F9.3°C 78% 2.3 mph NW3.7 kmh NW 5.8 mph9.3 kmh 30.13 in1020.3 mb - 0.00 in0.0 mm 0.01 in0.3 mm
08:30 AM 55.2°F12.9°C 48.8°F9.3°C 79% 3.5 mph N5.6 kmh N 5.8 mph9.3 kmh 30.13 in1020.3 mb - 0.00 in0.0 mm 0.01 in0.3 mm
08:25 AM 54.8°F12.7°C 48.7°F9.3°C 80% 3.5 mph NNW5.6 kmh NNW 3.5 mph5.6 kmh 30.13 in1020.3 mb - 0.00 in0.0 mm 0.01 in0.3 mm
08:20 AM 54.4°F12.4°C 48.4°F9.1°C 80% 2.3 mph NNW3.7 kmh NNW 3.5 mph5.6 kmh 30.13 in1020.3 mb - 0.00 in0.0 mm 0.01 in0.3 mm
08:15 AM 54.1°F12.3°C 48.4°F9.1°C 81% 2.3 mph NNW3.7 kmh NNW 6.9 mph11.1 kmh 30.13 in1020.3 mb - 0.00 in0.0 mm 0.01 in0.3 mm
08:10 AM 53.8°F12.1°C 48.1°F8.9°C 81% 2.3 mph NNE3.7 kmh NNE 3.5 mph5.6 kmh 30.12 in1020.0 mb - 0.00 in0.0 mm 0.01 in0.3 mm
08:00 AM 53.3°F11.8°C 48.3°F9.1°C 83% 3.5 mph NW5.6 kmh NW 5.8 mph9.3 kmh 30.12 in1020.0 mb - 0.00 in0.0 mm 0.01 in0.3 mm
07:55 AM 53.2°F11.8°C 48.2°F9.0°C 83% 3.5 mph N5.6 kmh N 4.6 mph7.4 kmh 30.12 in1020.0 mb - 0.00 in0.0 mm 0.01 in0.3 mm
07:50 AM 52.9°F11.6°C 48.2°F9.0°C 84% 3.5 mph NW5.6 kmh NW 5.8 mph9.3 kmh 30.11 in1019.6 mb - 0.00 in0.0 mm 0.01 in0.3 mm
07:45 AM 52.9°F11.6°C 48.2°F9.0°C 84% 2.3 mph N3.7 kmh N 3.5 mph5.6 kmh 30.11 in1019.6 mb - 0.00 in0.0 mm 0.01 in0.3 mm
07:40 AM 52.8°F11.6°C 48.1°F8.9°C 84% 2.3 mph N3.7 kmh N 2.3 mph3.7 kmh 30.11 in1019.6 mb - 0.00 in0.0 mm 0.01 in0.3 mm
07:35 AM 52.9°F11.6°C 48.2°F9.0°C 84% 1.2 mph NNW1.9 kmh NNW 3.5 mph5.6 kmh 30.11 in1019.6 mb - 0.00 in0.0 mm 0.01 in0.3 mm
07:30 AM 53.0°F11.7°C 48.0°F8.9°C 83% 2.3 mph N3.7 kmh N 3.5 mph5.6 kmh 30.11 in1019.6 mb - 0.00 in0.0 mm 0.01 in0.3 mm
07:25 AM 53.0°F11.7°C 48.3°F9.1°C 84% 2.3 mph N3.7 kmh N 3.5 mph5.6 kmh 30.11 in1019.6 mb - 0.00 in0.0 mm 0.01 in0.3 mm
07:20 AM 53.0°F11.7°C 48.0°F8.9°C 83% 2.3 mph NNW3.7 kmh NNW 4.6 mph7.4 kmh 30.11 in1019.6 mb - 0.00 in0.0 mm 0.01 in0.3 mm
07:15 AM 53.1°F11.7°C 48.1°F8.9°C 83% 2.3 mph N3.7 kmh N 3.5 mph5.6 kmh 30.11 in1019.6 mb - 0.00 in0.0 mm 0.01 in0.3 mm
07:10 AM 53.3°F11.8°C 48.3°F9.1°C 83% 2.3 mph NNW3.7 kmh NNW 3.5 mph5.6 kmh 30.10 in1019.3 mb - 0.00 in0.0 mm 0.01 in0.3 mm
07:00 AM 53.7°F12.1°C 48.3°F9.1°C 82% 2.3 mph N3.7 kmh N 3.5 mph5.6 kmh 30.10 in1019.3 mb - 0.00 in0.0 mm 0.01 in0.3 mm
06:55 AM 53.8°F12.1°C 48.4°F9.1°C 82% 2.3 mph N3.7 kmh N 5.8 mph9.3 kmh 30.10 in1019.3 mb - 0.00 in0.0 mm 0.01 in0.3 mm
06:50 AM 54.0°F12.2°C 48.9°F9.4°C 83% 2.3 mph NE3.7 kmh NE 2.3 mph3.7 kmh 30.09 in1019.0 mb - 0.00 in0.0 mm 0.01 in0.3 mm
06:45 AM 54.1°F12.3°C 48.7°F9.3°C 82% 3.5 mph NNE5.6 kmh NNE 3.5 mph5.6 kmh 30.09 in1019.0 mb - 0.00 in0.0 mm 0.01 in0.3 mm
06:40 AM 54.3°F12.4°C 48.9°F9.4°C 82% 2.3 mph N3.7 kmh N 5.8 mph9.3 kmh 30.09 in1019.0 mb - 0.00 in0.0 mm 0.01 in0.3 mm
06:35 AM 54.4°F12.4°C 49.0°F9.4°C 82% 2.3 mph NNW3.7 kmh NNW 3.5 mph5.6 kmh 30.09 in1019.0 mb - 0.00 in0.0 mm 0.01 in0.3 mm
06:30 AM 54.4°F12.4°C 49.0°F9.4°C 82% 3.5 mph N5.6 kmh N 3.5 mph5.6 kmh 30.09 in1019.0 mb - 0.00 in0.0 mm 0.01 in0.3 mm
06:25 AM 54.6°F12.6°C 49.2°F9.6°C 82% 3.5 mph N5.6 kmh N 8.1 mph13.0 kmh 30.09 in1019.0 mb - 0.00 in0.0 mm 0.01 in0.3 mm
06:20 AM 54.8°F12.7°C 49.1°F9.5°C 81% 3.5 mph N5.6 kmh N 4.6 mph7.4 kmh 30.08 in1018.6 mb - 0.00 in0.0 mm 0.01 in0.3 mm
06:15 AM 54.8°F12.7°C 49.4°F9.7°C 82% 4.6 mph N7.4 kmh N 5.8 mph9.3 kmh 30.08 in1018.6 mb - 0.00 in0.0 mm 0.01 in0.3 mm
06:10 AM 54.9°F12.7°C 49.5°F9.7°C 82% 3.5 mph NE5.6 kmh NE 6.9 mph11.1 kmh 30.08 in1018.6 mb - 0.00 in0.0 mm 0.01 in0.3 mm
06:00 AM 55.2°F12.9°C 49.4°F9.7°C 81% 3.5 mph N5.6 kmh N 4.6 mph7.4 kmh 30.08 in1018.6 mb - 0.00 in0.0 mm 0.01 in0.3 mm
05:55 AM 55.2°F12.9°C 49.5°F9.7°C 81% 2.3 mph N3.7 kmh N 8.1 mph13.0 kmh 30.07 in1018.3 mb - 0.00 in0.0 mm 0.01 in0.3 mm
05:50 AM 55.3°F12.9°C 49.9°F9.9°C 82% 4.6 mph N7.4 kmh N 6.9 mph11.1 kmh 30.07 in1018.3 mb - 0.00 in0.0 mm 0.01 in0.3 mm
05:45 AM 55.3°F12.9°C 49.9°F9.9°C 82% 3.5 mph N5.6 kmh N 4.6 mph7.4 kmh 30.07 in1018.3 mb - 0.00 in0.0 mm 0.01 in0.3 mm
05:40 AM 55.5°F13.1°C 50.1°F10.1°C 82% 3.5 mph NW5.6 kmh NW 6.9 mph11.1 kmh 30.07 in1018.3 mb - 0.00 in0.0 mm 0.01 in0.3 mm
05:35 AM 55.7°F13.2°C 49.9°F9.9°C 81% 4.6 mph N7.4 kmh N 6.9 mph11.1 kmh 30.07 in1018.3 mb - 0.00 in0.0 mm 0.01 in0.3 mm
05:30 AM 55.8°F13.2°C 50.1°F10.1°C 81% 3.5 mph NNE5.6 kmh NNE 4.6 mph7.4 kmh 30.07 in1018.3 mb - 0.00 in0.0 mm 0.01 in0.3 mm
05:25 AM 56.0°F13.3°C 49.9°F9.9°C 80% 2.3 mph N3.7 kmh N 4.6 mph7.4 kmh 30.07 in1018.3 mb - 0.00 in0.0 mm 0.01 in0.3 mm
05:20 AM 56.1°F13.4°C 50.3°F10.2°C 81% 3.5 mph NNE5.6 kmh NNE 6.9 mph11.1 kmh 30.06 in1017.9 mb - 0.00 in0.0 mm 0.01 in0.3 mm
05:15 AM 56.2°F13.4°C 50.1°F10.1°C 80% 4.6 mph NNW7.4 kmh NNW 6.9 mph11.1 kmh 30.06 in1017.9 mb - 0.00 in0.0 mm 0.01 in0.3 mm
05:10 AM 56.4°F13.6°C 50.3°F10.2°C 80% 3.5 mph NNE5.6 kmh NNE 8.1 mph13.0 kmh 30.06 in1017.9 mb - 0.00 in0.0 mm 0.01 in0.3 mm
05:00 AM 56.6°F13.7°C 50.8°F10.4°C 81% 4.6 mph N7.4 kmh N 11.5 mph18.5 kmh 30.06 in1017.9 mb - 0.00 in0.0 mm 0.01 in0.3 mm
04:55 AM 56.8°F13.8°C 50.7°F10.4°C 80% 2.3 mph N3.7 kmh N 3.5 mph5.6 kmh 30.05 in1017.6 mb - 0.00 in0.0 mm 0.01 in0.3 mm
04:50 AM 57.1°F13.9°C 51.0°F10.6°C 80% 2.3 mph N3.7 kmh N 6.9 mph11.1 kmh 30.05 in1017.6 mb - 0.00 in0.0 mm 0.01 in0.3 mm
04:45 AM 57.2°F14.0°C 51.1°F10.6°C 80% 5.8 mph NNE9.3 kmh NNE 11.5 mph18.5 kmh 30.04 in1017.3 mb - 0.00 in0.0 mm 0.01 in0.3 mm
04:40 AM 57.4°F14.1°C 51.3°F10.7°C 80% 2.3 mph NNE3.7 kmh NNE 11.5 mph18.5 kmh 30.04 in1017.3 mb - 0.00 in0.0 mm 0.01 in0.3 mm
04:35 AM 57.5°F14.2°C 51.0°F10.6°C 79% 3.5 mph N5.6 kmh N 4.6 mph7.4 kmh 30.04 in1017.3 mb - 0.00 in0.0 mm 0.01 in0.3 mm
04:30 AM 57.5°F14.2°C 51.4°F10.8°C 80% 2.3 mph N3.7 kmh N 6.9 mph11.1 kmh 30.03 in1016.9 mb - 0.00 in0.0 mm 0.01 in0.3 mm
04:25 AM 57.5°F14.2°C 51.7°F10.9°C 81% 3.5 mph N5.6 kmh N 8.1 mph13.0 kmh 30.03 in1016.9 mb - 0.00 in0.0 mm 0.01 in0.3 mm
04:20 AM 57.7°F14.3°C 51.9°F11.1°C 81% 2.3 mph NW3.7 kmh NW 4.6 mph7.4 kmh 30.03 in1016.9 mb - 0.00 in0.0 mm 0.01 in0.3 mm
04:15 AM 57.9°F14.4°C 51.8°F11.0°C 80% 3.5 mph NE5.6 kmh NE 4.6 mph7.4 kmh 30.02 in1016.6 mb - 0.00 in0.0 mm 0.01 in0.3 mm
04:10 AM 58.1°F14.5°C 52.0°F11.1°C 80% 2.3 mph NE3.7 kmh NE 5.8 mph9.3 kmh 30.02 in1016.6 mb - 0.00 in0.0 mm 0.01 in0.3 mm
04:00 AM 58.1°F14.5°C 52.3°F11.3°C 81% 2.3 mph NNE3.7 kmh NNE 3.5 mph5.6 kmh 30.01 in1016.3 mb - 0.00 in0.0 mm 0.01 in0.3 mm
03:55 AM 58.2°F14.6°C 52.7°F11.5°C 82% 3.5 mph NE5.6 kmh NE 5.8 mph9.3 kmh 30.01 in1016.3 mb - 0.00 in0.0 mm 0.01 in0.3 mm
03:50 AM 58.1°F14.5°C 52.6°F11.4°C 82% 3.5 mph N5.6 kmh N 8.1 mph13.0 kmh 30.01 in1016.3 mb - 0.00 in0.0 mm 0.01 in0.3 mm
03:45 AM 58.2°F14.6°C 53.1°F11.7°C 83% 3.5 mph N5.6 kmh N 4.6 mph7.4 kmh 30.01 in1016.3 mb - 0.00 in0.0 mm 0.01 in0.3 mm
03:40 AM 58.2°F14.6°C 53.1°F11.7°C 83% 2.3 mph NNW3.7 kmh NNW 4.6 mph7.4 kmh 30.01 in1016.3 mb - 0.00 in0.0 mm 0.01 in0.3 mm
03:35 AM 58.4°F14.7°C 53.3°F11.8°C 83% 2.3 mph NE3.7 kmh NE 3.5 mph5.6 kmh 30.01 in1016.3 mb - 0.00 in0.0 mm 0.01 in0.3 mm
03:30 AM 58.5°F14.7°C 53.4°F11.9°C 83% 3.5 mph N5.6 kmh N 5.8 mph9.3 kmh 30.01 in1016.3 mb - 0.00 in0.0 mm 0.01 in0.3 mm
03:25 AM 58.7°F14.8°C 53.5°F11.9°C 83% 2.3 mph NNW3.7 kmh NNW 3.5 mph5.6 kmh 30.01 in1016.3 mb - 0.00 in0.0 mm 0.01 in0.3 mm
03:20 AM 58.7°F14.8°C 53.5°F11.9°C 83% 3.5 mph N5.6 kmh N 5.8 mph9.3 kmh 30.01 in1016.3 mb - 0.00 in0.0 mm 0.01 in0.3 mm
03:15 AM 58.9°F14.9°C 54.1°F12.3°C 84% 2.3 mph NNE3.7 kmh NNE 3.5 mph5.6 kmh 30.01 in1016.3 mb - 0.00 in0.0 mm 0.01 in0.3 mm
03:10 AM 58.9°F14.9°C 54.1°F12.3°C 84% 2.3 mph NNE3.7 kmh NNE 4.6 mph7.4 kmh 30.01 in1016.3 mb - 0.00 in0.0 mm 0.01 in0.3 mm
03:00 AM 59.2°F15.1°C 54.4°F12.4°C 84% 3.5 mph N5.6 kmh N 3.5 mph5.6 kmh 30.00 in1015.9 mb - 0.00 in0.0 mm 0.01 in0.3 mm
02:55 AM 59.5°F15.3°C 54.7°F12.6°C 84% 3.5 mph N5.6 kmh N 5.8 mph9.3 kmh 30.00 in1015.9 mb - 0.00 in0.0 mm 0.01 in0.3 mm
02:50 AM 59.7°F15.4°C 54.5°F12.5°C 83% 2.3 mph N3.7 kmh N 3.5 mph5.6 kmh 30.00 in1015.9 mb - 0.00 in0.0 mm 0.01 in0.3 mm
02:45 AM 59.9°F15.5°C 54.7°F12.6°C 83% 3.5 mph NNE5.6 kmh NNE 6.9 mph11.1 kmh 30.00 in1015.9 mb - 0.00 in0.0 mm 0.01 in0.3 mm
02:40 AM 60.0°F15.6°C 55.2°F12.9°C 84% 3.5 mph N5.6 kmh N 3.5 mph5.6 kmh 30.01 in1016.3 mb - 0.00 in0.0 mm 0.01 in0.3 mm
02:35 AM 60.1°F15.6°C 55.2°F12.9°C 84% 3.5 mph NNE5.6 kmh NNE 5.8 mph9.3 kmh 30.01 in1016.3 mb - 0.00 in0.0 mm 0.01 in0.3 mm
02:30 AM 60.2°F15.7°C 55.4°F13.0°C 84% 1.2 mph N1.9 kmh N 5.8 mph9.3 kmh 30.01 in1016.3 mb - 0.00 in0.0 mm 0.01 in0.3 mm
02:25 AM 60.5°F15.8°C 55.7°F13.2°C 84% 3.5 mph N5.6 kmh N 6.9 mph11.1 kmh 30.01 in1016.3 mb - 0.00 in0.0 mm 0.01 in0.3 mm
02:20 AM 60.6°F15.9°C 55.7°F13.2°C 84% 5.8 mph NW9.3 kmh NW 6.9 mph11.1 kmh 30.01 in1016.3 mb - 0.00 in0.0 mm 0.01 in0.3 mm
02:15 AM 60.7°F15.9°C 56.2°F13.4°C 85% 5.8 mph N9.3 kmh N 9.2 mph14.8 kmh 30.01 in1016.3 mb - 0.00 in0.0 mm 0.01 in0.3 mm
02:10 AM 60.9°F16.1°C 56.6°F13.7°C 86% 3.5 mph N5.6 kmh N 9.2 mph14.8 kmh 30.01 in1016.3 mb - 0.00 in0.0 mm 0.01 in0.3 mm
02:00 AM 61.2°F16.2°C 57.6°F14.2°C 88% 5.8 mph N9.3 kmh N 10.4 mph16.7 kmh 30.01 in1016.3 mb - 0.00 in0.0 mm 0.01 in0.3 mm
01:55 AM 61.4°F16.3°C 57.5°F14.2°C 87% 3.5 mph NNW5.6 kmh NNW 4.6 mph7.4 kmh 30.02 in1016.6 mb - 0.00 in0.0 mm 0.01 in0.3 mm
01:50 AM 61.7°F16.5°C 57.8°F14.3°C 87% 3.5 mph NW5.6 kmh NW 6.9 mph11.1 kmh 30.02 in1016.6 mb - 0.00 in0.0 mm 0.01 in0.3 mm
01:45 AM 61.9°F16.6°C 58.0°F14.4°C 87% 4.6 mph NNW7.4 kmh NNW 6.9 mph11.1 kmh 30.02 in1016.6 mb - 0.00 in0.0 mm 0.01 in0.3 mm
01:40 AM 62.2°F16.8°C 58.3°F14.6°C 87% 4.6 mph NNW7.4 kmh NNW 5.8 mph9.3 kmh 30.02 in1016.6 mb - 0.00 in0.0 mm 0.01 in0.3 mm
01:35 AM 62.4°F16.9°C 58.5°F14.7°C 87% 4.6 mph NW7.4 kmh NW 5.8 mph9.3 kmh 30.02 in1016.6 mb - 0.00 in0.0 mm 0.01 in0.3 mm
01:30 AM 62.4°F16.9°C 58.8°F14.9°C 88% 4.6 mph NNW7.4 kmh NNW 9.2 mph14.8 kmh 30.02 in1016.6 mb - 0.00 in0.0 mm 0.01 in0.3 mm
01:25 AM 62.5°F16.9°C 59.6°F15.3°C 90% 3.5 mph NW5.6 kmh NW 10.4 mph16.7 kmh 30.02 in1016.6 mb - 0.00 in0.0 mm 0.01 in0.3 mm
01:20 AM 62.8°F17.1°C 60.1°F15.6°C 91% 4.6 mph NNW7.4 kmh NNW 11.5 mph18.5 kmh 30.02 in1016.6 mb - 0.00 in0.0 mm 0.01 in0.3 mm
01:15 AM 63.1°F17.3°C 60.7°F15.9°C 92% 4.6 mph NNW7.4 kmh NNW 5.8 mph9.3 kmh 30.02 in1016.6 mb - 0.00 in0.0 mm 0.01 in0.3 mm
01:10 AM 63.4°F17.4°C 61.0°F16.1°C 92% 4.6 mph NW7.4 kmh NW 5.8 mph9.3 kmh 30.02 in1016.6 mb - 0.00 in0.0 mm 0.01 in0.3 mm
01:00 AM 63.7°F17.6°C 61.3°F16.3°C 92% 5.8 mph NW9.3 kmh NW 6.9 mph11.1 kmh 30.01 in1016.3 mb - 0.01 in0.3 mm 0.01 in0.3 mm
12:55 AM 63.9°F17.7°C 61.5°F16.4°C 92% 4.6 mph WNW7.4 kmh WNW 5.8 mph9.3 kmh 30.01 in1016.3 mb - 0.01 in0.3 mm 0.01 in0.3 mm
12:50 AM 64.0°F17.8°C 61.7°F16.5°C 92% 5.8 mph NW9.3 kmh NW 6.9 mph11.1 kmh 30.00 in1015.9 mb - 0.01 in0.3 mm 0.01 in0.3 mm
12:45 AM 64.2°F17.9°C 61.9°F16.6°C 92% 4.6 mph NW7.4 kmh NW 9.2 mph14.8 kmh 29.99 in1015.6 mb - 0.01 in0.3 mm 0.01 in0.3 mm
12:40 AM 64.3°F17.9°C 61.9°F16.6°C 92% 1.2 mph NW1.9 kmh NW 4.6 mph7.4 kmh 29.99 in1015.6 mb - 0.04 in1.0 mm 0.01 in0.3 mm
12:35 AM 64.3°F17.9°C 61.9°F16.6°C 92% 2.3 mph WNW3.7 kmh WNW 3.5 mph5.6 kmh 29.99 in1015.6 mb - 0.05 in1.3 mm 0.01 in0.3 mm
12:30 AM 64.5°F18.1°C 62.4°F16.9°C 93% 4.6 mph NW7.4 kmh NW 6.9 mph11.1 kmh 29.99 in1015.6 mb - 0.05 in1.3 mm 0.01 in0.3 mm
12:25 AM 64.7°F18.2°C 62.6°F17.0°C 93% 3.5 mph NW5.6 kmh NW 4.6 mph7.4 kmh 29.99 in1015.6 mb - 0.05 in1.3 mm 0.01 in0.3 mm
12:20 AM 64.9°F18.3°C 62.8°F17.1°C 93% 2.3 mph NNW3.7 kmh NNW 3.5 mph5.6 kmh 29.98 in1015.2 mb - 0.05 in1.3 mm 0.01 in0.3 mm
12:15 AM 65.0°F18.3°C 63.3°F17.4°C 94% 2.3 mph NW3.7 kmh NW 3.5 mph5.6 kmh 29.98 in1015.2 mb - 0.05 in1.3 mm 0.01 in0.3 mm
12:10 AM 65.1°F18.4°C 63.0°F17.2°C 93% 2.3 mph NW3.7 kmh NW 3.5 mph5.6 kmh 29.99 in1015.6 mb - 0.05 in1.3 mm 0.01 in0.3 mm
12:00 AM 65.5°F18.6°C 63.8°F17.7°C 94% 2.3 mph NW3.7 kmh NW 5.8 mph9.3 kmh 30.00 in1015.9 mb - 0.04 in1.0 mm 0.04 in1.0 mm